KVEL/VEL METAR and TAF weather

Enter ICAO airport designator
Station Type Date Time Source
KVEL METAR 2023/02/05 13:53 UTC NOAA

KVEL 051353Z AUTO 00000KT 5SM BR CLR M18/M19 A3015 RMK AO2 SLP310 T11781189 $


Station Type Date Time Source
KVEL Decoded METAR 2023/02/05 13:53 UTC NOAA

VERNAL AIRPORT, UT, United States (KVEL) 40-26N 109-30W 1604M
Feb 05, 2023 - 08:53 AM EST / 2023.02.05 1353 UTC
Wind: Calm:0
Visibility: 5 mile(s):0
Sky conditions: clear
Weather: mist
Temperature: -0.0 F (-17.8 C)
Dew Point: -2.0 F (-18.9 C)
Relative Humidity: 91%
Pressure (altimeter): 30.15 in. Hg (1020 hPa)
ob: KVEL 051353Z AUTO 00000KT 5SM BR CLR M18/M19 A3015 RMK AO2 SLP310 T11781189
cycle: 14

Station Type Date Time Source
KVEL TAF 2023/02/05 12:22 UTC NOAA

TAF KVEL 051120Z 0512/0612 00000KT 5SM BR BKN250
FM051800 08002KT P6SM BKN250
FM052100 17003KT P6SM OVC100
FM060000 22004KT P6SM OVC050
FM060300 VRB04KT P6SM -SN OVC025

Example: see airport list